Hundvaag 1 weather for May 1995
Month no. 95
Obs.
Da.
Temp. Dew Point Precip. Wind
Speed
Wind gusts Cloud cover Press. Humidity Wind dir. Sunny OPT
01.05.1995 2,3   0,0     8       1  
02.05.1995 5,2   0,0     10       1  
03.05.1995 10,2   0,0     0       1  
04.05.1995 6,2   0,0     10       1  
05.05.1995 8,9   0,0     0       1  
06.05.1995 6,4   0,8     1       1  
07.05.1995 9,2   0,8     8       1  
08.05.1995 6,3   13,0     0          
09.05.1995 7,7   5,6     0       1  
10.05.1995 5,9   0,0     0       1  
11.05.1995 3,3   0,0     10       1  
12.05.1995 1,8   0,0     6       1  
13.05.1995 5,3   1,9     10       1  
14.05.1995 3,2   3,9     0       1  
15.05.1995 3,3   1,8     0       1  
16.05.1995 5,2   4,9     8       1  
17.05.1995 5,2   0,5     10       1  
18.05.1995 4,2   0,0     9       1  
19.05.1995 3,4   0,0     6       1  
20.05.1995 5,1   13,9     0       1  
21.05.1995 5,6   1,4     10       1  
22.05.1995 3,2   0,0     10       1  
23.05.1995 6,2   0,0     7       1  
24.05.1995 9,4   0,0     1       1  
25.05.1995 16,5   0,0     10       1  
26.05.1995 13,6   0,3     0       1  
27.05.1995 13,3   0,0     10       1  
28.05.1995 13,7   0,0     10       1  
29.05.1995 13,0   2,6     0       1  
30.05.1995 9,2   0,0     0       1  
31.05.1995 8,7   0,0     0       1  
Avrg/Sum 7,1   51,4     5,0       30